Time;durP1;ratioP1;P1;durP2;ratioP2;P2;SDS_P1;SDS_P2;PMS_P1;PMS_P2;Temp;Humidity;BMP_temperature;BMP_pressure;BME280_temperature;BME280_humidity;BME280_pressure;Samples;Min_cycle;Max_cycle;Signal;HPM_P1;HPM_P2
2022/03/07 00:01:15;;;;;;;;;;;2.90;79.70;;;;;;5077517;28;19909;-82
2022/03/07 00:03:41;;;;;;;;;;;2.90;79.80;;;;;;5077312;28;20355;-83
2022/03/07 00:06:07;;;;;;;;;;;2.90;80.90;;;;;;5077491;28;19931;-82
2022/03/07 00:08:32;;;;;;;;;;;2.90;80.50;;;;;;5059177;28;19962;-83
2022/03/07 00:10:58;;;;;;;;;;;2.90;80.60;;;;;;5077157;28;19908;-82
2022/03/07 00:13:24;;;;;;;;;;;2.90;80.60;;;;;;5058354;28;19913;-83
2022/03/07 00:15:50;;;;;;;;;;;2.90;80.20;;;;;;5077210;28;19909;-82
2022/03/07 00:18:16;;;;;;;;;;;2.80;80.40;;;;;;5077426;28;19909;-83
2022/03/07 00:20:41;;;;;;;;;;;2.90;80.80;;;;;;5059478;28;19908;-83
2022/03/07 00:23:11;;;;;;;;;;;2.90;81.10;;;;;;5077190;28;19950;-83
2022/03/07 00:25:37;;;;;;;;;;;2.80;80.50;;;;;;5077128;28;19908;-83
2022/03/07 00:28:03;;;;;;;;;;;2.80;80.60;;;;;;5076782;28;19917;-83
2022/03/07 00:30:29;;;;;;;;;;;2.80;80.50;;;;;;5077192;28;19909;-83
2022/03/07 00:32:54;;;;;;;;;;;2.80;81.10;;;;;;5071222;28;19922;-82
2022/03/07 00:35:20;;;;;;;;;;;2.80;81.40;;;;;;5077161;28;19947;-82
2022/03/07 00:37:45;;;;;;;;;;;2.80;81.10;;;;;;5076868;28;20003;-83
2022/03/07 00:40:11;;;;;;;;;;;2.80;81.20;;;;;;5076161;28;19943;-82
2022/03/07 00:42:37;;;;;;;;;;;2.80;81.00;;;;;;5076616;28;19913;-82
2022/03/07 00:45:07;;;;;;;;;;;2.70;81.10;;;;;;5076674;28;19925;-83
2022/03/07 00:47:34;;;;;;;;;;;2.70;80.90;;;;;;5076774;28;19909;-83
2022/03/07 00:50:00;;;;;;;;;;;2.70;81.50;;;;;;5079276;28;19971;-83
2022/03/07 00:52:25;;;;;;;;;;;2.70;81.50;;;;;;5080309;28;20371;-83
2022/03/07 00:54:51;;;;;;;;;;;2.70;81.40;;;;;;5079140;28;20287;-83
2022/03/07 00:57:17;;;;;;;;;;;2.60;81.40;;;;;;5080413;28;19948;-82
2022/03/07 00:59:42;;;;;;;;;;;2.60;81.20;;;;;;5080168;28;19909;-83
2022/03/07 01:02:10;;;;;;;;;;;2.60;81.60;;;;;;5080293;28;19966;-83
2022/03/07 01:04:36;;;;;;;;;;;2.50;80.90;;;;;;5076696;28;19995;-83
2022/03/07 01:07:02;;;;;;;;;;;2.50;80.60;;;;;;5080138;28;19912;-83
2022/03/07 01:09:27;;;;;;;;;;;2.50;80.50;;;;;;5080088;28;19920;-83
2022/03/07 01:11:53;;;;;;;;;;;2.50;80.20;;;;;;5080116;28;19908;-83
2022/03/07 01:14:19;;;;;;;;;;;2.40;80.20;;;;;;5078946;28;19909;-82
2022/03/07 01:16:45;;;;;;;;;;;2.40;80.00;;;;;;5079729;28;20433;-83
2022/03/07 01:19:10;;;;;;;;;;;2.30;80.00;;;;;;5080358;28;19908;-83
2022/03/07 01:21:37;;;;;;;;;;;2.30;80.00;;;;;;5079940;28;20353;-83
2022/03/07 01:24:03;;;;;;;;;;;2.30;79.80;;;;;;5061875;28;19915;-83
2022/03/07 01:26:28;;;;;;;;;;;2.20;79.70;;;;;;5079824;28;19995;-82
2022/03/07 01:28:54;;;;;;;;;;;2.20;80.10;;;;;;5079695;28;20375;-83
2022/03/07 01:31:20;;;;;;;;;;;2.20;79.90;;;;;;5059597;28;19908;-82
2022/03/07 01:33:45;;;;;;;;;;;2.20;79.50;;;;;;5077189;28;19962;-82
2022/03/07 01:36:11;;;;;;;;;;;2.10;79.70;;;;;;5079820;28;19962;-82
2022/03/07 01:38:36;;;;;;;;;;;2.10;79.50;;;;;;5079911;28;19995;-82
2022/03/07 01:41:02;;;;;;;;;;;2.10;79.60;;;;;;5078399;28;20007;-82
2022/03/07 01:43:29;;;;;;;;;;;2.00;79.40;;;;;;5079481;28;19908;-82
2022/03/07 01:45:55;;;;;;;;;;;2.00;79.60;;;;;;5079496;28;19942;-83
2022/03/07 01:48:20;;;;;;;;;;;2.00;79.90;;;;;;5079741;28;19913;-83
2022/03/07 01:50:46;;;;;;;;;;;2.00;79.80;;;;;;5079491;28;19950;-83
2022/03/07 01:53:12;;;;;;;;;;;2.00;80.20;;;;;;5079489;28;19908;-83
2022/03/07 01:55:37;;;;;;;;;;;2.00;79.90;;;;;;5079213;28;19919;-83
2022/03/07 01:58:03;;;;;;;;;;;1.90;79.50;;;;;;5079392;28;19908;-82
2022/03/07 02:00:29;;;;;;;;;;;1.90;79.30;;;;;;5078492;28;19909;-83
2022/03/07 02:02:55;;;;;;;;;;;1.90;79.40;;;;;;5079270;28;19912;-83
2022/03/07 02:05:21;;;;;;;;;;;1.80;79.50;;;;;;5061198;28;19908;-83
2022/03/07 02:07:47;;;;;;;;;;;1.80;80.10;;;;;;5079576;28;19956;-83
2022/03/07 02:10:13;;;;;;;;;;;1.80;80.40;;;;;;5078918;28;19912;-83
2022/03/07 02:12:38;;;;;;;;;;;1.80;80.60;;;;;;5060791;28;19912;-83
2022/03/07 02:15:05;;;;;;;;;;;1.80;80.40;;;;;;5078966;28;19916;-83
2022/03/07 02:17:31;;;;;;;;;;;1.80;80.20;;;;;;5079377;28;19916;-82
2022/03/07 02:19:56;;;;;;;;;;;1.80;80.20;;;;;;5078891;28;19908;-83
2022/03/07 02:22:23;;;;;;;;;;;1.80;80.40;;;;;;5079013;28;19916;-83
2022/03/07 02:24:49;;;;;;;;;;;1.80;80.30;;;;;;5078609;28;20334;-83
2022/03/07 02:27:18;;;;;;;;;;;1.70;80.60;;;;;;5061199;28;19912;-83
2022/03/07 02:29:44;;;;;;;;;;;1.80;81.00;;;;;;5078413;28;19935;-83
2022/03/07 02:32:10;;;;;;;;;;;1.70;81.30;;;;;;5073861;28;19909;-83
2022/03/07 02:34:36;;;;;;;;;;;1.70;81.50;;;;;;5078504;28;19930;-83
2022/03/07 02:37:02;;;;;;;;;;;1.70;81.60;;;;;;5078743;28;19910;-83
2022/03/07 02:39:28;;;;;;;;;;;1.70;81.50;;;;;;5076833;28;19908;-83
2022/03/07 02:41:54;;;;;;;;;;;1.70;81.80;;;;;;5078617;28;19915;-83
2022/03/07 02:44:20;;;;;;;;;;;1.70;81.40;;;;;;5077841;28;20383;-82
2022/03/07 02:46:45;;;;;;;;;;;1.70;81.30;;;;;;5078560;28;19930;-83
2022/03/07 02:49:11;;;;;;;;;;;1.70;81.40;;;;;;5078429;28;19978;-83
2022/03/07 02:51:36;;;;;;;;;;;1.70;82.00;;;;;;5078701;28;19967;-82
2022/03/07 02:54:03;;;;;;;;;;;1.70;81.90;;;;;;5078201;28;19988;-83
2022/03/07 02:56:29;;;;;;;;;;;1.70;82.20;;;;;;5078375;28;19908;-83
2022/03/07 02:58:54;;;;;;;;;;;1.60;81.90;;;;;;5077942;28;19909;-83
2022/03/07 03:01:20;;;;;;;;;;;1.60;81.90;;;;;;5078218;28;19914;-83
2022/03/07 03:03:45;;;;;;;;;;;1.60;82.10;;;;;;5078068;28;19940;-83
2022/03/07 03:06:11;;;;;;;;;;;1.60;82.00;;;;;;5078230;28;19913;-82
2022/03/07 03:08:37;;;;;;;;;;;1.60;81.70;;;;;;5078001;28;20053;-83
2022/03/07 03:11:03;;;;;;;;;;;1.60;81.70;;;;;;5077722;28;20295;-82
2022/03/07 03:13:28;;;;;;;;;;;1.60;81.70;;;;;;5077259;28;19908;-83
2022/03/07 03:15:55;;;;;;;;;;;1.60;81.90;;;;;;5078344;28;19912;-82
2022/03/07 03:18:21;;;;;;;;;;;1.60;82.20;;;;;;5077972;28;20436;-83
2022/03/07 03:20:49;;;;;;;;;;;1.60;82.20;;;;;;5078066;28;19908;-83
2022/03/07 03:23:15;;;;;;;;;;;1.50;82.00;;;;;;5077843;28;19917;-82
2022/03/07 03:25:41;;;;;;;;;;;1.50;82.20;;;;;;5077776;28;20344;-83
2022/03/07 03:28:07;;;;;;;;;;;1.50;82.00;;;;;;5059634;28;19944;-83
2022/03/07 03:30:33;;;;;;;;;;;1.50;81.70;;;;;;5077950;28;19974;-83
2022/03/07 03:32:59;;;;;;;;;;;1.50;82.00;;;;;;5054720;28;19908;-82
2022/03/07 03:35:24;;;;;;;;;;;1.40;81.80;;;;;;5078266;28;19944;-83
2022/03/07 03:37:51;;;;;;;;;;;1.40;82.00;;;;;;5077666;28;20349;-83
2022/03/07 03:40:17;;;;;;;;;;;1.40;81.70;;;;;;5075952;28;19909;-83
2022/03/07 03:42:42;;;;;;;;;;;1.40;81.80;;;;;;5077219;28;19942;-83
2022/03/07 03:45:09;;;;;;;;;;;1.40;81.90;;;;;;5077527;28;19964;-82
2022/03/07 03:47:35;;;;;;;;;;;1.40;82.10;;;;;;5077664;28;19909;-82
2022/03/07 03:50:01;;;;;;;;;;;1.40;83.30;;;;;;5077928;28;19939;-82
2022/03/07 03:52:26;;;;;;;;;;;1.40;82.90;;;;;;5077488;28;20314;-83
2022/03/07 03:54:52;;;;;;;;;;;1.40;82.60;;;;;;5077849;28;19959;-83
2022/03/07 03:57:18;;;;;;;;;;;1.40;82.90;;;;;;5077409;28;19919;-83
2022/03/07 03:59:43;;;;;;;;;;;1.30;82.50;;;;;;5077595;28;19911;-83
2022/03/07 04:02:09;;;;;;;;;;;1.30;82.60;;;;;;5077367;28;19909;-83
2022/03/07 04:04:35;;;;;;;;;;;1.30;82.40;;;;;;5077594;28;19923;-83
2022/03/07 04:07:01;;;;;;;;;;;1.20;82.40;;;;;;5059406;28;19962;-82
2022/03/07 04:09:26;;;;;;;;;;;1.20;82.10;;;;;;5077301;28;19913;-82
2022/03/07 04:11:54;;;;;;;;;;;1.20;82.10;;;;;;5077431;28;20435;-82
2022/03/07 04:14:19;;;;;;;;;;;1.20;81.80;;;;;;5077190;28;19915;-81
2022/03/07 04:16:45;;;;;;;;;;;1.20;82.20;;;;;;5059370;28;19908;-82
2022/03/07 04:19:11;;;;;;;;;;;1.10;81.90;;;;;;5077659;28;20003;-82
2022/03/07 04:21:39;;;;;;;;;;;1.10;82.40;;;;;;5077534;28;19915;-82
2022/03/07 04:24:05;;;;;;;;;;;1.10;82.40;;;;;;5078011;28;20418;-82
2022/03/07 04:26:31;;;;;;;;;;;1.10;82.40;;;;;;5080973;28;19987;-82
2022/03/07 04:28:57;;;;;;;;;;;1.10;82.90;;;;;;5080964;28;19950;-82
2022/03/07 04:31:22;;;;;;;;;;;1.00;82.90;;;;;;5078536;28;20291;-82
2022/03/07 04:33:48;;;;;;;;;;;1.00;82.50;;;;;;5078706;28;19913;-82
2022/03/07 04:36:14;;;;;;;;;;;1.00;82.50;;;;;;5080850;28;19916;-82
2022/03/07 04:38:40;;;;;;;;;;;0.90;82.00;;;;;;5081106;28;19961;-82
2022/03/07 04:41:06;;;;;;;;;;;1.00;82.10;;;;;;5079409;28;19908;-82
2022/03/07 04:43:32;;;;;;;;;;;0.90;82.00;;;;;;5080762;28;19915;-82
2022/03/07 04:45:58;;;;;;;;;;;0.90;82.60;;;;;;5080443;28;19925;-82
2022/03/07 04:48:25;;;;;;;;;;;0.90;82.10;;;;;;5080635;28;19920;-81
2022/03/07 04:50:50;;;;;;;;;;;0.90;81.70;;;;;;5080547;28;20443;-82
2022/03/07 04:53:18;;;;;;;;;;;0.80;81.60;;;;;;5080133;28;20192;-82
2022/03/07 04:55:44;;;;;;;;;;;0.80;81.70;;;;;;5080445;28;19909;-82
2022/03/07 04:58:09;;;;;;;;;;;0.80;81.50;;;;;;5080486;28;19908;-82
2022/03/07 05:00:35;;;;;;;;;;;0.80;81.30;;;;;;5080460;28;19909;-82
2022/03/07 05:03:00;;;;;;;;;;;0.70;81.30;;;;;;5080540;28;20003;-82
2022/03/07 05:05:26;;;;;;;;;;;0.70;81.40;;;;;;5080416;28;19908;-82
2022/03/07 05:07:52;;;;;;;;;;;0.70;82.20;;;;;;5080586;28;19931;-82
2022/03/07 05:10:18;;;;;;;;;;;0.70;82.00;;;;;;5080120;28;20394;-82
2022/03/07 05:12:45;;;;;;;;;;;0.70;82.00;;;;;;5080263;28;19908;-83
2022/03/07 05:15:11;;;;;;;;;;;0.60;82.10;;;;;;5062181;28;20019;-81
2022/03/07 05:17:43;;;;;;;;;;;0.60;82.20;;;;;;5080585;28;19952;-82
2022/03/07 05:20:11;;;;;;;;;;;0.60;82.50;;;;;;5080110;28;19908;-82
2022/03/07 05:22:37;;;;;;;;;;;0.60;82.50;;;;;;5080189;28;19908;-81
2022/03/07 05:25:04;;;;;;;;;;;0.60;83.40;;;;;;5079851;28;19908;-82
2022/03/07 05:27:30;;;;;;;;;;;0.60;82.90;;;;;;5079720;28;19909;-82
2022/03/07 05:29:55;;;;;;;;;;;0.60;83.10;;;;;;5079812;28;19917;-81
2022/03/07 05:32:21;;;;;;;;;;;0.60;83.00;;;;;;5075006;28;19908;-81
2022/03/07 05:34:47;;;;;;;;;;;0.60;83.40;;;;;;5079542;28;19909;-81
2022/03/07 05:37:12;;;;;;;;;;;0.60;83.50;;;;;;5079960;28;19909;-82
2022/03/07 05:39:38;;;;;;;;;;;0.60;83.50;;;;;;5078309;28;19920;-81
2022/03/07 05:42:04;;;;;;;;;;;0.60;83.80;;;;;;5080043;28;19915;-82
2022/03/07 05:44:29;;;;;;;;;;;0.60;83.70;;;;;;5078974;28;19943;-82
2022/03/07 05:46:55;;;;;;;;;;;0.50;83.70;;;;;;5079841;28;20375;-82
2022/03/07 05:49:21;;;;;;;;;;;0.50;83.70;;;;;;5079540;28;19947;-82
2022/03/07 05:51:46;;;;;;;;;;;0.50;83.40;;;;;;5079763;28;19908;-83
2022/03/07 05:54:12;;;;;;;;;;;0.50;83.70;;;;;;5079573;28;19908;-82
2022/03/07 05:56:38;;;;;;;;;;;0.50;83.60;;;;;;5061716;28;19912;-82
2022/03/07 05:59:03;;;;;;;;;;;0.50;83.50;;;;;;5079051;28;19909;-82
2022/03/07 06:01:29;;;;;;;;;;;0.50;83.80;;;;;;5079427;28;19916;-82
2022/03/07 06:03:55;;;;;;;;;;;0.50;83.50;;;;;;5061171;28;19909;-82
2022/03/07 06:06:20;;;;;;;;;;;0.50;84.00;;;;;;5079409;28;19912;-81
2022/03/07 06:08:46;;;;;;;;;;;0.50;84.00;;;;;;5061357;28;19913;-78
2022/03/07 06:11:12;;;;;;;;;;;0.50;84.00;;;;;;5079006;28;19923;-80
2022/03/07 06:13:37;;;;;;;;;;;0.50;83.90;;;;;;5078739;28;19938;-81
2022/03/07 06:16:03;;;;;;;;;;;0.50;84.10;;;;;;5060859;28;19961;-81
2022/03/07 06:18:30;;;;;;;;;;;0.50;84.00;;;;;;5078955;28;19908;-79
2022/03/07 06:20:56;;;;;;;;;;;0.50;84.20;;;;;;5061059;28;19978;-76
2022/03/07 06:23:23;;;;;;;;;;;0.50;84.10;;;;;;5078834;28;19908;-80
2022/03/07 06:25:49;;;;;;;;;;;0.50;84.40;;;;;;5079013;28;19935;-76
2022/03/07 06:28:14;;;;;;;;;;;0.50;84.40;;;;;;5078304;28;19912;-77
2022/03/07 06:30:40;;;;;;;;;;;0.50;84.40;;;;;;5078759;28;19909;-77
2022/03/07 06:33:06;;;;;;;;;;;0.50;84.50;;;;;;5073616;28;19991;-75
2022/03/07 06:35:31;;;;;;;;;;;0.50;84.60;;;;;;5078670;28;19943;-77
2022/03/07 06:37:57;;;;;;;;;;;0.50;84.60;;;;;;5060519;28;19915;-73
2022/03/07 06:40:23;;;;;;;;;;;0.50;84.30;;;;;;5076904;28;19916;-71
2022/03/07 06:42:48;;;;;;;;;;;0.50;84.20;;;;;;5078068;28;19912;-79
2022/03/07 06:45:16;;;;;;;;;;;0.50;84.50;;;;;;5078195;28;19924;-80
2022/03/07 06:47:43;;;;;;;;;;;0.50;84.50;;;;;;5077717;28;19956;-80
2022/03/07 06:50:09;;;;;;;;;;;0.50;84.30;;;;;;5078641;28;19935;-80
2022/03/07 06:52:35;;;;;;;;;;;0.50;84.40;;;;;;5078142;28;19909;-80
2022/03/07 06:55:00;;;;;;;;;;;0.50;84.20;;;;;;5078387;28;19958;-81
2022/03/07 06:57:26;;;;;;;;;;;0.50;83.90;;;;;;5077849;28;19916;-80
2022/03/07 06:59:52;;;;;;;;;;;0.50;83.80;;;;;;5078254;28;19930;-80
2022/03/07 07:02:18;;;;;;;;;;;0.50;84.10;;;;;;5078052;28;19948;-80
2022/03/07 07:04:43;;;;;;;;;;;0.50;84.00;;;;;;5078099;28;19909;-80
2022/03/07 07:07:09;;;;;;;;;;;0.50;83.70;;;;;;5078046;28;19908;-81
2022/03/07 07:09:35;;;;;;;;;;;0.50;83.50;;;;;;5078040;28;19919;-80
2022/03/07 07:12:01;;;;;;;;;;;0.50;83.30;;;;;;5077975;28;19999;-80
2022/03/07 07:14:26;;;;;;;;;;;0.50;83.50;;;;;;5077785;28;19970;-81
2022/03/07 07:16:52;;;;;;;;;;;0.60;83.20;;;;;;5077963;28;20338;-81
2022/03/07 07:19:19;;;;;;;;;;;0.60;83.30;;;;;;5078222;28;19916;-81
2022/03/07 07:21:45;;;;;;;;;;;0.60;83.30;;;;;;5078022;28;19908;-81
2022/03/07 07:24:10;;;;;;;;;;;0.70;83.50;;;;;;5077800;28;20346;-81
2022/03/07 07:26:36;;;;;;;;;;;0.70;83.40;;;;;;5077811;28;19908;-81
2022/03/07 07:29:02;;;;;;;;;;;0.70;83.00;;;;;;5077541;28;19912;-81
2022/03/07 07:31:27;;;;;;;;;;;0.80;83.00;;;;;;5074440;28;19908;-81
2022/03/07 07:33:53;;;;;;;;;;;0.80;83.10;;;;;;5076150;28;19909;-81
2022/03/07 07:36:18;;;;;;;;;;;0.90;83.10;;;;;;5059858;28;19915;-82
2022/03/07 07:38:44;;;;;;;;;;;0.90;83.00;;;;;;5078080;28;19967;-82
2022/03/07 07:41:10;;;;;;;;;;;0.90;82.80;;;;;;5076007;28;19909;-81
2022/03/07 07:43:36;;;;;;;;;;;1.00;83.10;;;;;;5077666;28;19908;-82
2022/03/07 07:46:03;;;;;;;;;;;1.10;82.90;;;;;;5077458;28;19921;-82
2022/03/07 07:48:28;;;;;;;;;;;1.10;82.70;;;;;;5077639;28;19912;-82
2022/03/07 07:50:54;;;;;;;;;;;1.20;82.80;;;;;;5077460;28;19909;-82
2022/03/07 07:53:20;;;;;;;;;;;1.30;82.80;;;;;;5077889;28;19908;-82
2022/03/07 07:55:45;;;;;;;;;;;1.30;82.70;;;;;;5077369;28;19930;-82
2022/03/07 07:58:11;;;;;;;;;;;1.30;82.50;;;;;;5078570;28;19930;-82
2022/03/07 08:00:37;;;;;;;;;;;1.40;82.30;;;;;;5081562;28;20434;-82
2022/03/07 08:03:03;;;;;;;;;;;1.50;82.30;;;;;;5079946;28;19957;-82
2022/03/07 08:05:28;;;;;;;;;;;1.60;82.30;;;;;;5079543;28;19912;-82
2022/03/07 08:07:54;;;;;;;;;;;1.60;82.20;;;;;;5081783;28;19963;-82
2022/03/07 08:10:20;;;;;;;;;;;1.70;82.20;;;;;;5081308;28;20356;-81
2022/03/07 08:12:46;;;;;;;;;;;1.80;82.20;;;;;;5081264;28;19912;-82
2022/03/07 08:15:12;;;;;;;;;;;1.80;82.00;;;;;;5081330;28;19908;-82
2022/03/07 08:17:38;;;;;;;;;;;1.90;81.80;;;;;;5063399;28;19908;-82
2022/03/07 08:20:05;;;;;;;;;;;2.00;81.80;;;;;;5081429;28;19909;-82
2022/03/07 08:22:30;;;;;;;;;;;2.00;81.90;;;;;;5081402;28;20366;-82
2022/03/07 08:24:56;;;;;;;;;;;2.10;81.80;;;;;;5081041;28;19909;-82
2022/03/07 08:27:22;;;;;;;;;;;2.20;81.70;;;;;;5081087;28;19909;-82
2022/03/07 08:29:47;;;;;;;;;;;2.30;81.50;;;;;;5080927;28;20395;-82
2022/03/07 08:32:13;;;;;;;;;;;2.30;81.20;;;;;;5076196;28;19909;-82
2022/03/07 08:34:39;;;;;;;;;;;2.40;81.10;;;;;;5080866;28;19915;-82
2022/03/07 08:37:04;;;;;;;;;;;2.50;81.00;;;;;;5080870;28;19915;-82
2022/03/07 08:39:30;;;;;;;;;;;2.60;80.80;;;;;;5079162;28;19979;-82
2022/03/07 08:41:56;;;;;;;;;;;2.70;80.50;;;;;;5081074;28;19956;-82
2022/03/07 08:44:21;;;;;;;;;;;2.70;80.50;;;;;;5080161;28;19909;-83
2022/03/07 08:46:47;;;;;;;;;;;2.80;80.50;;;;;;5062851;28;19912;-81
2022/03/07 08:49:13;;;;;;;;;;;2.90;80.10;;;;;;5062899;28;19951;-82
2022/03/07 08:51:40;;;;;;;;;;;3.00;79.90;;;;;;5080816;28;20387;-82
2022/03/07 08:54:06;;;;;;;;;;;3.00;79.70;;;;;;5080497;28;19935;-81
2022/03/07 08:56:31;;;;;;;;;;;3.10;79.70;;;;;;5080696;28;19987;-81
2022/03/07 08:58:57;;;;;;;;;;;3.30;79.80;;;;;;5080230;28;20406;-81
2022/03/07 09:01:24;;;;;;;;;;;3.40;79.80;;;;;;5062593;28;19942;-81
2022/03/07 09:03:50;;;;;;;;;;;3.70;81.10;;;;;;5080343;28;19944;-82
2022/03/07 09:06:15;;;;;;;;;;;4.30;81.80;;;;;;5080546;28;19959;-82
2022/03/07 09:08:41;;;;;;;;;;;4.60;80.80;;;;;;5080194;28;19977;-82
2022/03/07 09:11:07;;;;;;;;;;;4.80;80.20;;;;;;5079550;28;20286;-83
2022/03/07 09:13:32;;;;;;;;;;;5.00;79.00;;;;;;5079942;28;19915;-82
2022/03/07 09:15:58;;;;;;;;;;;5.20;79.00;;;;;;5080348;28;19908;-82
2022/03/07 09:18:26;;;;;;;;;;;5.70;80.60;;;;;;5080174;28;20333;-82
2022/03/07 09:20:51;;;;;;;;;;;6.50;80.70;;;;;;5080409;28;19931;-82
2022/03/07 09:23:17;;;;;;;;;;;7.40;80.10;;;;;;5080032;28;19909;-82
2022/03/07 09:25:43;;;;;;;;;;;8.20;78.80;;;;;;5062420;28;19996;-82
2022/03/07 09:28:08;;;;;;;;;;;8.90;77.60;;;;;;5061861;28;19916;-82
2022/03/07 09:30:34;;;;;;;;;;;9.60;76.00;;;;;;5080062;28;19947;-82
2022/03/07 09:33:03;;;;;;;;;;;10.20;74.80;;;;;;5056824;28;19908;-82
2022/03/07 09:35:30;;;;;;;;;;;10.80;73.50;;;;;;5080001;28;19920;-83
2022/03/07 09:37:55;;;;;;;;;;;11.50;69.70;;;;;;5079800;28;19916;-83
2022/03/07 09:40:21;;;;;;;;;;;11.90;67.80;;;;;;5078380;28;19909;-83
2022/03/07 09:42:47;;;;;;;;;;;12.40;68.30;;;;;;5079276;28;19909;-83
2022/03/07 09:45:13;;;;;;;;;;;12.70;67.20;;;;;;5079602;28;20058;-83
2022/03/07 09:47:39;;;;;;;;;;;13.00;65.50;;;;;;5079442;28;19916;-83
2022/03/07 09:50:05;;;;;;;;;;;13.40;66.00;;;;;;5079691;28;19939;-83
2022/03/07 09:52:31;;;;;;;;;;;13.80;66.00;;;;;;5079107;28;20261;-83
2022/03/07 09:54:58;;;;;;;;;;;14.30;64.30;;;;;;5079572;28;20359;-84
2022/03/07 09:57:24;;;;;;;;;;;14.60;61.60;;;;;;5079027;28;20379;-84
2022/03/07 09:59:50;;;;;;;;;;;15.00;62.20;;;;;;5079476;28;19912;-84
2022/03/07 10:02:22;;;;;;;;;;;15.30;60.20;;;;;;5079112;28;19940;-84
2022/03/07 10:04:48;;;;;;;;;;;15.60;59.50;;;;;;5079196;28;20411;-84
2022/03/07 10:07:14;;;;;;;;;;;15.80;59.70;;;;;;5079156;28;19908;-84
2022/03/07 10:09:39;;;;;;;;;;;16.10;59.10;;;;;;5078889;28;19912;-84
2022/03/07 10:12:05;;;;;;;;;;;16.30;58.90;;;;;;5078749;28;20505;-85
2022/03/07 10:14:47;;;;;;;;;;;16.70;56.80;;;;;;5079000;28;19908;-85
2022/03/07 10:17:20;;;;;;;;;;;17.00;56.20;;;;;;5079289;28;19995;-84
2022/03/07 10:19:46;;;;;;;;;;;17.20;56.10;;;;;;5079034;28;19951;-84
2022/03/07 10:22:19;;;;;;;;;;;17.40;56.90;;;;;;5078122;28;19999;-85
2022/03/07 10:24:44;;;;;;;;;;;17.70;57.20;;;;;;5078445;28;19909;-85
2022/03/07 10:27:10;;;;;;;;;;;17.90;56.10;;;;;;5079029;28;19916;-84
2022/03/07 10:29:48;;;;;;;;;;;18.10;55.30;;;;;;5078502;28;19961;-84
2022/03/07 10:32:17;;;;;;;;;;;18.40;53.90;;;;;;5073814;28;19909;-84
2022/03/07 10:34:43;;;;;;;;;;;18.70;53.20;;;;;;5078597;28;19915;-84
2022/03/07 10:37:08;;;;;;;;;;;18.70;51.90;;;;;;5078815;28;19912;-84
2022/03/07 10:39:34;;;;;;;;;;;18.80;52.70;;;;;;5076935;28;20271;-84
2022/03/07 10:42:00;;;;;;;;;;;19.00;51.90;;;;;;5078579;28;19999;-84
2022/03/07 10:44:29;;;;;;;;;;;19.10;51.60;;;;;;5078022;28;19938;-84
2022/03/07 10:47:06;;;;;;;;;;;19.30;52.50;;;;;;5078702;28;20394;-84
2022/03/07 10:49:32;;;;;;;;;;;19.50;51.20;;;;;;5078350;28;19956;-84
2022/03/07 10:51:57;;;;;;;;;;;19.70;50.50;;;;;;5060851;28;19930;-85
2022/03/07 10:54:23;;;;;;;;;;;19.80;50.10;;;;;;5078124;28;19916;-84
2022/03/07 10:56:49;;;;;;;;;;;19.90;49.60;;;;;;5078368;28;19915;-84
2022/03/07 10:59:25;;;;;;;;;;;20.10;48.80;;;;;;5078034;28;20375;-84
2022/03/07 11:01:57;;;;;;;;;;;20.20;47.80;;;;;;5078124;28;19971;-85
2022/03/07 11:04:23;;;;;;;;;;;20.20;48.70;;;;;;5074181;28;20015;-84
2022/03/07 11:06:49;;;;;;;;;;;20.30;48.90;;;;;;5077999;28;19951;-84
2022/03/07 11:09:14;;;;;;;;;;;20.40;49.70;;;;;;5078224;28;19912;-84
2022/03/07 11:11:40;;;;;;;;;;;20.60;48.90;;;;;;5078005;28;20379;-84
2022/03/07 11:14:06;;;;;;;;;;;20.70;48.30;;;;;;5077912;28;19909;-84
2022/03/07 11:16:32;;;;;;;;;;;20.70;45.20;;;;;;5078039;28;19912;-84
2022/03/07 11:18:58;;;;;;;;;;;20.70;46.90;;;;;;5078304;28;19969;-84
2022/03/07 11:21:25;;;;;;;;;;;20.70;46.20;;;;;;5077903;28;19909;-84
2022/03/07 11:23:51;;;;;;;;;;;20.70;47.30;;;;;;5078013;28;19920;-84
2022/03/07 11:26:20;;;;;;;;;;;20.80;48.00;;;;;;5077859;28;19908;-84
2022/03/07 11:28:47;;;;;;;;;;;20.90;47.20;;;;;;5077697;28;20457;-85
2022/03/07 11:31:22;;;;;;;;;;;21.10;45.70;;;;;;5076458;28;19951;-85
2022/03/07 11:33:52;;;;;;;;;;;21.00;46.00;;;;;;5075319;28;19913;-85
2022/03/07 11:36:19;;;;;;;;;;;21.00;46.10;;;;;;5077906;28;19920;-84
2022/03/07 11:38:56;;;;;;;;;;;21.00;45.00;;;;;;5077919;28;19909;-84
2022/03/07 11:41:23;;;;;;;;;;;21.10;46.60;;;;;;5075769;28;20006;-84
2022/03/07 11:43:53;;;;;;;;;;;21.10;44.80;;;;;;5077499;28;19912;-85
2022/03/07 11:46:25;;;;;;;;;;;21.10;44.50;;;;;;5077359;28;19944;-85
2022/03/07 11:48:51;;;;;;;;;;;21.10;46.20;;;;;;5077625;28;19913;-85
2022/03/07 11:51:18;;;;;;;;;;;21.20;46.30;;;;;;5077915;28;19909;-85
2022/03/07 11:53:44;;;;;;;;;;;21.30;46.80;;;;;;5077718;28;19956;-84
2022/03/07 11:56:15;;;;;;;;;;;21.40;46.40;;;;;;5077586;28;19908;-84
2022/03/07 11:58:45;;;;;;;;;;;21.50;44.80;;;;;;5077174;28;20401;-84
2022/03/07 12:01:11;;;;;;;;;;;21.30;44.80;;;;;;5077648;28;20291;-84
2022/03/07 12:03:37;;;;;;;;;;;21.20;44.50;;;;;;5073385;28;20278;-82
2022/03/07 12:06:05;;;;;;;;;;;21.10;43.70;;;;;;5077691;28;20378;-84
2022/03/07 12:08:41;;;;;;;;;;;21.00;41.70;;;;;;5077290;28;19922;-84
2022/03/07 12:11:09;;;;;;;;;;;20.80;42.70;;;;;;5077311;28;19909;-83
2022/03/07 12:13:44;;;;;;;;;;;20.60;42.70;;;;;;5077022;28;19913;-83
2022/03/07 12:16:12;;;;;;;;;;;20.20;40.30;;;;;;5077583;28;19912;-84
2022/03/07 12:18:38;;;;;;;;;;;19.80;41.70;;;;;;5077405;28;20466;-82
2022/03/07 12:21:03;;;;;;;;;;;19.30;38.80;;;;;;5077532;28;20006;-82
2022/03/07 12:23:30;;;;;;;;;;;18.90;39.90;;;;;;5077294;28;19948;-82
2022/03/07 12:25:57;;;;;;;;;;;18.40;40.90;;;;;;5077514;28;19913;-82
2022/03/07 12:28:25;;;;;;;;;;;17.90;42.00;;;;;;5077098;28;19912;-83
2022/03/07 12:30:53;;;;;;;;;;;17.60;43.40;;;;;;5077592;28;19913;-83
2022/03/07 12:33:19;;;;;;;;;;;17.60;42.50;;;;;;5072437;28;19915;-83
2022/03/07 12:35:45;;;;;;;;;;;17.70;45.00;;;;;;5077328;28;19908;-82
2022/03/07 12:38:10;;;;;;;;;;;17.80;43.20;;;;;;5077166;28;19908;-82
2022/03/07 12:40:37;;;;;;;;;;;17.50;41.70;;;;;;5075556;28;19909;-81
2022/03/07 12:43:03;;;;;;;;;;;17.20;43.90;;;;;;5058846;28;20291;-82
2022/03/07 12:45:29;;;;;;;;;;;16.80;43.20;;;;;;5060477;28;19955;-82
2022/03/07 12:47:54;;;;;;;;;;;16.30;40.60;;;;;;5080632;28;19909;-82
2022/03/07 12:50:26;;;;;;;;;;;15.90;44.10;;;;;;5062825;28;20371;-82
2022/03/07 12:52:52;;;;;;;;;;;15.70;43.40;;;;;;5062800;28;19931;-82
2022/03/07 12:55:18;;;;;;;;;;;15.70;43.60;;;;;;5080733;28;20353;-82
2022/03/07 12:57:44;;;;;;;;;;;15.70;42.20;;;;;;5080356;28;19909;-82
2022/03/07 13:00:11;;;;;;;;;;;15.90;44.40;;;;;;5080801;28;19908;-82
2022/03/07 13:02:38;;;;;;;;;;;16.00;43.80;;;;;;5080569;28;19908;-80
2022/03/07 13:05:06;;;;;;;;;;;16.20;43.80;;;;;;5080289;28;19931;-81
2022/03/07 13:07:31;;;;;;;;;;;16.30;42.70;;;;;;5080494;28;19991;-82
2022/03/07 13:10:05;;;;;;;;;;;16.30;43.50;;;;;;5080265;28;19951;-81
2022/03/07 13:12:33;;;;;;;;;;;16.30;43.60;;;;;;5061971;28;19931;-81
2022/03/07 13:14:59;;;;;;;;;;;16.30;42.50;;;;;;5080348;28;20302;-81
2022/03/07 13:17:25;;;;;;;;;;;16.20;43.00;;;;;;5080582;28;19962;-81
2022/03/07 13:19:51;;;;;;;;;;;16.10;44.50;;;;;;5080254;28;19912;-81
2022/03/07 13:22:18;;;;;;;;;;;16.10;44.10;;;;;;5080207;28;20291;-81
2022/03/07 13:24:53;;;;;;;;;;;16.10;43.50;;;;;;5079976;28;20387;-82
2022/03/07 13:27:20;;;;;;;;;;;16.00;43.30;;;;;;5080119;28;19908;-82
2022/03/07 13:29:46;;;;;;;;;;;16.00;43.30;;;;;;5061843;28;20390;-82
2022/03/07 13:32:14;;;;;;;;;;;15.90;43.30;;;;;;5075065;28;19908;-82
2022/03/07 13:34:49;;;;;;;;;;;15.70;44.00;;;;;;5079869;28;19951;-81
2022/03/07 13:37:16;;;;;;;;;;;15.50;42.70;;;;;;5079769;28;20272;-81
2022/03/07 13:39:42;;;;;;;;;;;15.30;43.80;;;;;;5078288;28;19908;-82
2022/03/07 13:42:09;;;;;;;;;;;15.00;43.90;;;;;;5079568;28;19995;-81
2022/03/07 13:44:36;;;;;;;;;;;14.70;44.40;;;;;;5079598;28;19908;-81
2022/03/07 13:47:03;;;;;;;;;;;14.40;44.60;;;;;;5079921;28;19919;-82
2022/03/07 13:49:46;;;;;;;;;;;14.20;45.20;;;;;;5079502;28;19913;-80
2022/03/07 13:52:16;;;;;;;;;;;13.90;45.30;;;;;;5079490;28;19908;-81
2022/03/07 13:54:42;;;;;;;;;;;13.70;45.70;;;;;;5079567;28;19999;-81
2022/03/07 13:57:08;;;;;;;;;;;13.40;45.40;;;;;;5079110;28;20272;-82
2022/03/07 13:59:34;;;;;;;;;;;13.20;44.70;;;;;;5079803;28;19909;-82
2022/03/07 14:01:59;;;;;;;;;;;13.00;46.10;;;;;;5079475;28;19909;-82
2022/03/07 14:04:25;;;;;;;;;;;12.90;45.80;;;;;;5079298;28;19915;-81
2022/03/07 14:07:04;;;;;;;;;;;12.80;45.80;;;;;;5079278;28;20431;-81
2022/03/07 14:09:30;;;;;;;;;;;12.50;45.50;;;;;;5079319;28;20412;-81
2022/03/07 14:11:59;;;;;;;;;;;12.40;47.20;;;;;;5078964;28;20038;-81
2022/03/07 14:14:25;;;;;;;;;;;12.30;48.30;;;;;;5079179;28;19908;-81
2022/03/07 14:16:50;;;;;;;;;;;12.20;47.80;;;;;;5079021;28;19915;-81
2022/03/07 14:19:17;;;;;;;;;;;12.10;47.50;;;;;;5079424;28;19908;-81
2022/03/07 14:21:43;;;;;;;;;;;12.10;47.70;;;;;;5078947;28;19908;-81